sensor_id;sensor_type;location;lat;lon;timestamp;temperature;humidity
53802;DHT22;39709;53.334;6.534;2023-04-03T00:01:49;3.20;99.90
53802;DHT22;39709;53.334;6.534;2023-04-03T00:04:14;3.20;99.90
53802;DHT22;39709;53.334;6.534;2023-04-03T00:06:40;3.20;99.90
53802;DHT22;39709;53.334;6.534;2023-04-03T00:09:06;3.20;99.90
53802;DHT22;39709;53.334;6.534;2023-04-03T00:11:32;2.70;99.90
53802;DHT22;39709;53.334;6.534;2023-04-03T00:13:57;2.30;99.90
53802;DHT22;39709;53.334;6.534;2023-04-03T00:16:23;2.60;99.90
53802;DHT22;39709;53.334;6.534;2023-04-03T00:18:49;2.80;99.90
53802;DHT22;39709;53.334;6.534;2023-04-03T00:21:14;2.50;99.90
53802;DHT22;39709;53.334;6.534;2023-04-03T00:23:41;2.80;99.90
53802;DHT22;39709;53.334;6.534;2023-04-03T00:26:06;2.60;99.90
53802;DHT22;39709;53.334;6.534;2023-04-03T00:28:32;2.70;99.90
53802;DHT22;39709;53.334;6.534;2023-04-03T00:30:58;2.90;99.90
53802;DHT22;39709;53.334;6.534;2023-04-03T00:33:24;3.40;99.90
53802;DHT22;39709;53.334;6.534;2023-04-03T00:35:50;3.10;99.90
53802;DHT22;39709;53.334;6.534;2023-04-03T00:38:16;3.20;99.90
53802;DHT22;39709;53.334;6.534;2023-04-03T00:40:45;3.40;99.90
53802;DHT22;39709;53.334;6.534;2023-04-03T00:43:18;3.40;99.90
53802;DHT22;39709;53.334;6.534;2023-04-03T00:45:47;3.60;99.90
53802;DHT22;39709;53.334;6.534;2023-04-03T00:48:35;3.60;99.90
53802;DHT22;39709;53.334;6.534;2023-04-03T00:51:03;3.40;99.90
53802;DHT22;39709;53.334;6.534;2023-04-03T00:53:37;3.30;99.90
53802;DHT22;39709;53.334;6.534;2023-04-03T00:56:06;3.20;99.90
53802;DHT22;39709;53.334;6.534;2023-04-03T00:58:38;3.00;99.90
53802;DHT22;39709;53.334;6.534;2023-04-03T01:01:07;3.50;99.90
53802;DHT22;39709;53.334;6.534;2023-04-03T01:03:34;3.10;99.90
53802;DHT22;39709;53.334;6.534;2023-04-03T01:05:59;3.20;99.90
53802;DHT22;39709;53.334;6.534;2023-04-03T01:08:25;3.30;99.90
53802;DHT22;39709;53.334;6.534;2023-04-03T01:10:51;3.50;99.90
53802;DHT22;39709;53.334;6.534;2023-04-03T01:13:21;3.00;99.90
53802;DHT22;39709;53.334;6.534;2023-04-03T01:15:48;2.80;99.90
53802;DHT22;39709;53.334;6.534;2023-04-03T01:18:14;2.90;99.90
53802;DHT22;39709;53.334;6.534;2023-04-03T01:20:50;2.90;99.90
53802;DHT22;39709;53.334;6.534;2023-04-03T01:26:07;2.70;99.90
53802;DHT22;39709;53.334;6.534;2023-04-03T01:28:36;2.70;99.90
53802;DHT22;39709;53.334;6.534;2023-04-03T01:31:28;2.90;99.90
53802;DHT22;39709;53.334;6.534;2023-04-03T01:33:55;2.60;99.90
53802;DHT22;39709;53.334;6.534;2023-04-03T01:36:29;3.10;99.90
53802;DHT22;39709;53.334;6.534;2023-04-03T01:38:56;2.70;99.90
53802;DHT22;39709;53.334;6.534;2023-04-03T01:41:22;2.60;99.90
53802;DHT22;39709;53.334;6.534;2023-04-03T01:43:49;2.60;99.90
53802;DHT22;39709;53.334;6.534;2023-04-03T01:46:15;2.40;99.90
53802;DHT22;39709;53.334;6.534;2023-04-03T01:48:41;2.50;99.90
53802;DHT22;39709;53.334;6.534;2023-04-03T01:51:07;2.40;99.90
53802;DHT22;39709;53.334;6.534;2023-04-03T01:53:33;2.20;99.90
53802;DHT22;39709;53.334;6.534;2023-04-03T01:55:58;1.70;99.90
53802;DHT22;39709;53.334;6.534;2023-04-03T01:58:24;2.10;99.90
53802;DHT22;39709;53.334;6.534;2023-04-03T02:00:51;1.00;99.90
53802;DHT22;39709;53.334;6.534;2023-04-03T02:03:17;1.20;99.90
53802;DHT22;39709;53.334;6.534;2023-04-03T02:05:43;0.90;99.90
53802;DHT22;39709;53.334;6.534;2023-04-03T02:08:09;1.00;99.90
53802;DHT22;39709;53.334;6.534;2023-04-03T02:10:34;1.20;99.90
53802;DHT22;39709;53.334;6.534;2023-04-03T02:13:00;0.60;99.90
53802;DHT22;39709;53.334;6.534;2023-04-03T02:15:26;0.40;99.90
53802;DHT22;39709;53.334;6.534;2023-04-03T02:17:52;0.50;99.90
53802;DHT22;39709;53.334;6.534;2023-04-03T02:20:18;0.70;99.90
53802;DHT22;39709;53.334;6.534;2023-04-03T02:22:44;0.20;99.90
53802;DHT22;39709;53.334;6.534;2023-04-03T02:25:09;0.60;99.90
53802;DHT22;39709;53.334;6.534;2023-04-03T02:27:36;0.50;99.90
53802;DHT22;39709;53.334;6.534;2023-04-03T02:30:02;0.20;99.90
53802;DHT22;39709;53.334;6.534;2023-04-03T02:32:28;0.00;99.90
53802;DHT22;39709;53.334;6.534;2023-04-03T02:34:54;0.30;99.90
53802;DHT22;39709;53.334;6.534;2023-04-03T02:37:20;-0.20;99.90
53802;DHT22;39709;53.334;6.534;2023-04-03T02:39:46;0.50;99.90
53802;DHT22;39709;53.334;6.534;2023-04-03T02:42:12;0.50;99.90
53802;DHT22;39709;53.334;6.534;2023-04-03T02:44:38;0.00;99.90
53802;DHT22;39709;53.334;6.534;2023-04-03T02:47:04;-0.30;99.90
53802;DHT22;39709;53.334;6.534;2023-04-03T02:49:31;-0.20;99.90
53802;DHT22;39709;53.334;6.534;2023-04-03T02:51:56;-0.20;99.90
53802;DHT22;39709;53.334;6.534;2023-04-03T02:54:22;-0.50;99.90
53802;DHT22;39709;53.334;6.534;2023-04-03T02:56:49;0.40;99.90
53802;DHT22;39709;53.334;6.534;2023-04-03T02:59:15;-0.20;99.90
53802;DHT22;39709;53.334;6.534;2023-04-03T03:01:40;-0.10;99.90
53802;DHT22;39709;53.334;6.534;2023-04-03T03:04:06;-0.10;99.90
53802;DHT22;39709;53.334;6.534;2023-04-03T03:06:32;0.00;99.90
53802;DHT22;39709;53.334;6.534;2023-04-03T03:08:57;0.40;99.90
53802;DHT22;39709;53.334;6.534;2023-04-03T03:11:23;-0.40;99.90
53802;DHT22;39709;53.334;6.534;2023-04-03T03:13:49;-0.30;99.90
53802;DHT22;39709;53.334;6.534;2023-04-03T03:16:15;0.50;99.90
53802;DHT22;39709;53.334;6.534;2023-04-03T03:18:40;-0.50;99.90
53802;DHT22;39709;53.334;6.534;2023-04-03T03:21:06;-0.70;99.90
53802;DHT22;39709;53.334;6.534;2023-04-03T03:23:32;-0.60;99.90
53802;DHT22;39709;53.334;6.534;2023-04-03T03:26:00;-0.70;99.90
53802;DHT22;39709;53.334;6.534;2023-04-03T03:28:26;-0.60;99.90
53802;DHT22;39709;53.334;6.534;2023-04-03T03:30:52;-0.60;99.90
53802;DHT22;39709;53.334;6.534;2023-04-03T03:33:18;0.00;99.90
53802;DHT22;39709;53.334;6.534;2023-04-03T03:35:44;0.10;99.90
53802;DHT22;39709;53.334;6.534;2023-04-03T03:38:10;-0.90;99.90
53802;DHT22;39709;53.334;6.534;2023-04-03T03:40:36;-0.90;99.90
53802;DHT22;39709;53.334;6.534;2023-04-03T03:43:02;-0.80;99.90
53802;DHT22;39709;53.334;6.534;2023-04-03T03:45:27;-0.90;99.90
53802;DHT22;39709;53.334;6.534;2023-04-03T03:47:53;0.00;99.90
53802;DHT22;39709;53.334;6.534;2023-04-03T03:50:19;-0.90;99.90
53802;DHT22;39709;53.334;6.534;2023-04-03T03:52:45;-0.90;99.90
53802;DHT22;39709;53.334;6.534;2023-04-03T03:55:11;-1.30;99.90
53802;DHT22;39709;53.334;6.534;2023-04-03T03:57:37;-1.20;99.90
53802;DHT22;39709;53.334;6.534;2023-04-03T04:00:03;-0.80;99.90
53802;DHT22;39709;53.334;6.534;2023-04-03T04:02:30;-1.20;99.90
53802;DHT22;39709;53.334;6.534;2023-04-03T04:04:56;-1.50;99.90
53802;DHT22;39709;53.334;6.534;2023-04-03T04:07:22;-1.40;99.90
53802;DHT22;39709;53.334;6.534;2023-04-03T04:09:48;-1.50;99.90
53802;DHT22;39709;53.334;6.534;2023-04-03T04:12:14;-1.30;99.90
53802;DHT22;39709;53.334;6.534;2023-04-03T04:14:39;-1.30;99.90
53802;DHT22;39709;53.334;6.534;2023-04-03T04:17:05;-1.20;99.90
53802;DHT22;39709;53.334;6.534;2023-04-03T04:19:31;-1.30;99.90
53802;DHT22;39709;53.334;6.534;2023-04-03T04:21:58;-1.20;99.90
53802;DHT22;39709;53.334;6.534;2023-04-03T04:24:24;1.00;99.90
53802;DHT22;39709;53.334;6.534;2023-04-03T04:26:49;-0.70;99.90
53802;DHT22;39709;53.334;6.534;2023-04-03T04:29:15;-0.80;99.90
53802;DHT22;39709;53.334;6.534;2023-04-03T04:31:41;-0.80;99.90
53802;DHT22;39709;53.334;6.534;2023-04-03T04:34:06;1.10;99.90
53802;DHT22;39709;53.334;6.534;2023-04-03T04:36:32;-1.00;99.90
53802;DHT22;39709;53.334;6.534;2023-04-03T04:38:58;-1.00;99.90
53802;DHT22;39709;53.334;6.534;2023-04-03T04:41:24;-1.10;99.90
53802;DHT22;39709;53.334;6.534;2023-04-03T04:43:50;-0.80;99.90
53802;DHT22;39709;53.334;6.534;2023-04-03T04:46:16;-1.30;99.90
53802;DHT22;39709;53.334;6.534;2023-04-03T04:48:42;-1.40;99.90
53802;DHT22;39709;53.334;6.534;2023-04-03T04:51:08;-1.40;99.90
53802;DHT22;39709;53.334;6.534;2023-04-03T04:53:34;-1.60;99.90
53802;DHT22;39709;53.334;6.534;2023-04-03T04:56:00;-1.00;99.90
53802;DHT22;39709;53.334;6.534;2023-04-03T04:58:25;-1.70;99.90
53802;DHT22;39709;53.334;6.534;2023-04-03T05:01:02;-1.50;99.90
53802;DHT22;39709;53.334;6.534;2023-04-03T05:03:28;-1.50;99.90
53802;DHT22;39709;53.334;6.534;2023-04-03T05:05:54;-1.50;99.90
53802;DHT22;39709;53.334;6.534;2023-04-03T05:08:19;-1.60;99.90
53802;DHT22;39709;53.334;6.534;2023-04-03T05:10:46;-1.10;99.90
53802;DHT22;39709;53.334;6.534;2023-04-03T05:13:12;-1.50;99.90
53802;DHT22;39709;53.334;6.534;2023-04-03T05:15:38;-1.60;99.90
53802;DHT22;39709;53.334;6.534;2023-04-03T05:18:03;-1.50;99.90
53802;DHT22;39709;53.334;6.534;2023-04-03T05:20:31;-1.60;99.90
53802;DHT22;39709;53.334;6.534;2023-04-03T05:22:57;-1.60;99.90
53802;DHT22;39709;53.334;6.534;2023-04-03T05:25:23;-1.20;99.90
53802;DHT22;39709;53.334;6.534;2023-04-03T05:27:49;-1.40;99.90
53802;DHT22;39709;53.334;6.534;2023-04-03T05:30:14;-1.20;99.90
53802;DHT22;39709;53.334;6.534;2023-04-03T05:32:40;-1.50;99.90
53802;DHT22;39709;53.334;6.534;2023-04-03T05:35:06;0.10;99.90
53802;DHT22;39709;53.334;6.534;2023-04-03T05:37:33;-1.30;99.90
53802;DHT22;39709;53.334;6.534;2023-04-03T05:39:59;-1.20;99.90
53802;DHT22;39709;53.334;6.534;2023-04-03T05:42:25;-1.30;99.90
53802;DHT22;39709;53.334;6.534;2023-04-03T05:44:51;-1.10;99.90
53802;DHT22;39709;53.334;6.534;2023-04-03T05:47:17;-1.30;99.90
53802;DHT22;39709;53.334;6.534;2023-04-03T05:49:43;-1.30;99.90
53802;DHT22;39709;53.334;6.534;2023-04-03T05:52:31;-1.30;99.90
53802;DHT22;39709;53.334;6.534;2023-04-03T05:54:57;-1.00;99.90
53802;DHT22;39709;53.334;6.534;2023-04-03T05:57:23;-0.10;99.90
53802;DHT22;39709;53.334;6.534;2023-04-03T05:59:49;-1.10;99.90
53802;DHT22;39709;53.334;6.534;2023-04-03T06:02:22;-0.80;99.90
53802;DHT22;39709;53.334;6.534;2023-04-03T06:04:48;-0.80;99.90
53802;DHT22;39709;53.334;6.534;2023-04-03T06:07:20;-0.50;99.90
53802;DHT22;39709;53.334;6.534;2023-04-03T06:09:48;-0.80;99.90
53802;DHT22;39709;53.334;6.534;2023-04-03T06:12:14;-0.60;99.90
53802;DHT22;39709;53.334;6.534;2023-04-03T06:14:40;-0.60;99.90
53802;DHT22;39709;53.334;6.534;2023-04-03T06:17:07;-0.50;99.90
53802;DHT22;39709;53.334;6.534;2023-04-03T06:19:34;-0.30;99.90
53802;DHT22;39709;53.334;6.534;2023-04-03T06:22:00;0.00;99.90
53802;DHT22;39709;53.334;6.534;2023-04-03T06:24:26;-0.20;99.90
53802;DHT22;39709;53.334;6.534;2023-04-03T06:26:52;-0.20;99.90
53802;DHT22;39709;53.334;6.534;2023-04-03T06:29:19;-0.10;99.90
53802;DHT22;39709;53.334;6.534;2023-04-03T06:31:45;-0.20;99.90
53802;DHT22;39709;53.334;6.534;2023-04-03T06:34:12;0.10;99.90
53802;DHT22;39709;53.334;6.534;2023-04-03T06:36:39;0.10;99.90
53802;DHT22;39709;53.334;6.534;2023-04-03T06:39:05;0.10;99.90
53802;DHT22;39709;53.334;6.534;2023-04-03T06:41:32;0.10;99.90
53802;DHT22;39709;53.334;6.534;2023-04-03T06:43:58;0.30;99.90
53802;DHT22;39709;53.334;6.534;2023-04-03T06:46:25;0.50;99.90
53802;DHT22;39709;53.334;6.534;2023-04-03T06:48:52;0.60;99.90
53802;DHT22;39709;53.334;6.534;2023-04-03T06:51:27;0.70;99.90
53802;DHT22;39709;53.334;6.534;2023-04-03T06:53:54;1.30;99.90
53802;DHT22;39709;53.334;6.534;2023-04-03T06:56:21;1.30;99.90
53802;DHT22;39709;53.334;6.534;2023-04-03T06:58:47;1.00;99.90
53802;DHT22;39709;53.334;6.534;2023-04-03T07:01:15;1.90;99.90
53802;DHT22;39709;53.334;6.534;2023-04-03T07:03:42;1.80;99.90
53802;DHT22;39709;53.334;6.534;2023-04-03T07:06:10;1.80;99.90
53802;DHT22;39709;53.334;6.534;2023-04-03T07:08:36;2.00;99.90
53802;DHT22;39709;53.334;6.534;2023-04-03T07:11:03;2.30;99.90
53802;DHT22;39709;53.334;6.534;2023-04-03T07:13:28;2.50;99.90
53802;DHT22;39709;53.334;6.534;2023-04-03T07:15:54;3.70;99.90
53802;DHT22;39709;53.334;6.534;2023-04-03T07:18:20;3.40;99.90
53802;DHT22;39709;53.334;6.534;2023-04-03T07:20:47;4.30;99.90
53802;DHT22;39709;53.334;6.534;2023-04-03T07:23:12;3.60;99.90
53802;DHT22;39709;53.334;6.534;2023-04-03T07:25:48;3.80;99.90
53802;DHT22;39709;53.334;6.534;2023-04-03T07:28:16;4.20;99.90
53802;DHT22;39709;53.334;6.534;2023-04-03T07:30:46;3.90;99.90
53802;DHT22;39709;53.334;6.534;2023-04-03T07:33:13;4.20;99.90
53802;DHT22;39709;53.334;6.534;2023-04-03T07:35:40;4.00;99.90
53802;DHT22;39709;53.334;6.534;2023-04-03T07:38:06;4.30;99.90
53802;DHT22;39709;53.334;6.534;2023-04-03T07:40:33;4.50;99.90
53802;DHT22;39709;53.334;6.534;2023-04-03T07:42:59;4.70;99.90
53802;DHT22;39709;53.334;6.534;2023-04-03T07:45:25;4.70;99.90
53802;DHT22;39709;53.334;6.534;2023-04-03T07:47:51;4.80;99.90
53802;DHT22;39709;53.334;6.534;2023-04-03T07:50:17;5.10;99.90
53802;DHT22;39709;53.334;6.534;2023-04-03T07:52:43;5.10;99.90
53802;DHT22;39709;53.334;6.534;2023-04-03T07:55:09;5.10;99.90
53802;DHT22;39709;53.334;6.534;2023-04-03T07:57:35;5.00;99.90
53802;DHT22;39709;53.334;6.534;2023-04-03T08:00:01;3.80;99.90
53802;DHT22;39709;53.334;6.534;2023-04-03T08:02:26;5.10;99.90
53802;DHT22;39709;53.334;6.534;2023-04-03T08:04:52;5.40;99.90
53802;DHT22;39709;53.334;6.534;2023-04-03T08:07:18;5.40;99.90
53802;DHT22;39709;53.334;6.534;2023-04-03T08:09:44;5.40;99.90
53802;DHT22;39709;53.334;6.534;2023-04-03T08:12:10;5.50;99.90
53802;DHT22;39709;53.334;6.534;2023-04-03T08:14:37;5.20;99.90
53802;DHT22;39709;53.334;6.534;2023-04-03T08:17:03;5.30;99.90
53802;DHT22;39709;53.334;6.534;2023-04-03T08:19:30;5.40;99.90
53802;DHT22;39709;53.334;6.534;2023-04-03T08:21:56;5.70;99.90
53802;DHT22;39709;53.334;6.534;2023-04-03T08:24:24;5.80;99.90
53802;DHT22;39709;53.334;6.534;2023-04-03T08:26:50;6.00;99.90
53802;DHT22;39709;53.334;6.534;2023-04-03T08:29:16;5.90;99.90
53802;DHT22;39709;53.334;6.534;2023-04-03T08:31:42;5.80;99.90
53802;DHT22;39709;53.334;6.534;2023-04-03T08:34:08;5.90;99.90
53802;DHT22;39709;53.334;6.534;2023-04-03T08:36:34;6.20;99.90
53802;DHT22;39709;53.334;6.534;2023-04-03T08:39:00;6.30;99.90
53802;DHT22;39709;53.334;6.534;2023-04-03T08:41:42;6.20;99.90
53802;DHT22;39709;53.334;6.534;2023-04-03T08:44:48;6.50;99.90
53802;DHT22;39709;53.334;6.534;2023-04-03T08:55:07;6.40;99.90
53802;DHT22;39709;53.334;6.534;2023-04-03T08:57:41;6.80;99.90
53802;DHT22;39709;53.334;6.534;2023-04-03T09:02:44;4.80;1.00
53802;DHT22;39709;53.334;6.534;2023-04-03T09:05:14;6.30;99.90
53802;DHT22;39709;53.334;6.534;2023-04-03T09:07:47;6.10;99.90
53802;DHT22;39709;53.334;6.534;2023-04-03T09:10:18;5.90;99.90
53802;DHT22;39709;53.334;6.534;2023-04-03T09:13:05;6.40;99.90
53802;DHT22;39709;53.334;6.534;2023-04-03T09:15:33;6.00;99.90
53802;DHT22;39709;53.334;6.534;2023-04-03T09:18:04;6.80;99.90
53802;DHT22;39709;53.334;6.534;2023-04-03T09:22:57;6.80;99.90
53802;DHT22;39709;53.334;6.534;2023-04-03T09:25:31;7.20;99.90
53802;DHT22;39709;53.334;6.534;2023-04-03T09:28:00;7.40;99.90
53802;DHT22;39709;53.334;6.534;2023-04-03T09:30:27;7.60;99.90
53802;DHT22;39709;53.334;6.534;2023-04-03T09:32:55;7.50;99.90
53802;DHT22;39709;53.334;6.534;2023-04-03T09:37:52;7.80;99.90
53802;DHT22;39709;53.334;6.534;2023-04-03T09:40:32;7.80;99.90
53802;DHT22;39709;53.334;6.534;2023-04-03T09:43:02;7.70;99.90
53802;DHT22;39709;53.334;6.534;2023-04-03T09:45:44;7.70;99.90
53802;DHT22;39709;53.334;6.534;2023-04-03T09:53:35;7.50;99.90
53802;DHT22;39709;53.334;6.534;2023-04-03T09:56:05;7.10;99.90
53802;DHT22;39709;53.334;6.534;2023-04-03T09:58:50;7.80;99.90
53802;DHT22;39709;53.334;6.534;2023-04-03T10:01:24;8.00;99.90
53802;DHT22;39709;53.334;6.534;2023-04-03T10:06:40;8.10;99.90
53802;DHT22;39709;53.334;6.534;2023-04-03T10:09:26;7.80;99.90
53802;DHT22;39709;53.334;6.534;2023-04-03T10:12:09;8.00;99.90
53802;DHT22;39709;53.334;6.534;2023-04-03T10:14:39;8.00;99.90
53802;DHT22;39709;53.334;6.534;2023-04-03T10:17:18;7.80;99.90
53802;DHT22;39709;53.334;6.534;2023-04-03T10:31:07;8.30;99.90
53802;DHT22;39709;53.334;6.534;2023-04-03T10:41:44;7.90;99.90
53802;DHT22;39709;53.334;6.534;2023-04-03T10:44:47;8.20;99.90
53802;DHT22;39709;53.334;6.534;2023-04-03T10:47:36;8.60;99.90
53802;DHT22;39709;53.334;6.534;2023-04-03T10:58:36;8.50;99.90
53802;DHT22;39709;53.334;6.534;2023-04-03T11:01:16;8.70;99.90
53802;DHT22;39709;53.334;6.534;2023-04-03T11:03:56;8.80;99.90
53802;DHT22;39709;53.334;6.534;2023-04-03T11:06:25;8.80;99.90
53802;DHT22;39709;53.334;6.534;2023-04-03T11:08:58;8.90;99.90
53802;DHT22;39709;53.334;6.534;2023-04-03T11:11:32;8.30;23.50
53802;DHT22;39709;53.334;6.534;2023-04-03T11:22:24;8.70;99.90
53802;DHT22;39709;53.334;6.534;2023-04-03T11:35:25;8.70;99.90
53802;DHT22;39709;53.334;6.534;2023-04-03T11:37:52;9.00;99.90
53802;DHT22;39709;53.334;6.534;2023-04-03T11:40:33;9.20;99.90
53802;DHT22;39709;53.334;6.534;2023-04-03T11:45:59;9.40;99.90
53802;DHT22;39709;53.334;6.534;2023-04-03T11:50:45;9.20;99.90
53802;DHT22;39709;53.334;6.534;2023-04-03T11:58:26;9.40;99.90
53802;DHT22;39709;53.334;6.534;2023-04-03T12:00:56;9.30;99.90
53802;DHT22;39709;53.334;6.534;2023-04-03T12:14:03;9.20;99.90
53802;DHT22;39709;53.334;6.534;2023-04-03T12:24:02;9.30;99.90
53802;DHT22;39709;53.334;6.534;2023-04-03T12:26:41;9.30;99.90
53802;DHT22;39709;53.334;6.534;2023-04-03T12:29:20;9.50;99.90
53802;DHT22;39709;53.334;6.534;2023-04-03T12:48:48;9.20;99.90
53802;DHT22;39709;53.334;6.534;2023-04-03T12:51:34;9.30;99.90
53802;DHT22;39709;53.334;6.534;2023-04-03T12:56:41;9.10;99.90
53802;DHT22;39709;53.334;6.534;2023-04-03T12:59:14;9.20;99.90
53802;DHT22;39709;53.334;6.534;2023-04-03T13:01:41;9.20;99.90
53802;DHT22;39709;53.334;6.534;2023-04-03T13:04:10;9.20;99.90
53802;DHT22;39709;53.334;6.534;2023-04-03T13:06:42;9.40;99.90
53802;DHT22;39709;53.334;6.534;2023-04-03T13:09:29;9.40;99.90
53802;DHT22;39709;53.334;6.534;2023-04-03T13:14:26;9.50;99.90
53802;DHT22;39709;53.334;6.534;2023-04-03T13:16:54;9.50;99.90
53802;DHT22;39709;53.334;6.534;2023-04-03T13:19:26;9.20;1.00
53802;DHT22;39709;53.334;6.534;2023-04-03T13:22:26;8.70;1.00
53802;DHT22;39709;53.334;6.534;2023-04-03T13:24:54;8.20;1.00
53802;DHT22;39709;53.334;6.534;2023-04-03T13:27:21;7.80;99.90
53802;DHT22;39709;53.334;6.534;2023-04-03T13:29:52;8.40;1.00
53802;DHT22;39709;53.334;6.534;2023-04-03T13:32:23;8.90;99.90
53802;DHT22;39709;53.334;6.534;2023-04-03T13:34:50;8.70;1.00
53802;DHT22;39709;53.334;6.534;2023-04-03T13:37:34;8.60;1.00
53802;DHT22;39709;53.334;6.534;2023-04-03T13:40:12;8.60;1.00
53802;DHT22;39709;53.334;6.534;2023-04-03T13:42:40;7.80;99.90
53802;DHT22;39709;53.334;6.534;2023-04-03T13:45:27;8.30;11.50
53802;DHT22;39709;53.334;6.534;2023-04-03T13:48:09;8.10;99.90
53802;DHT22;39709;53.334;6.534;2023-04-03T13:51:01;8.00;99.90
53802;DHT22;39709;53.334;6.534;2023-04-03T13:53:29;8.80;99.90
53802;DHT22;39709;53.334;6.534;2023-04-03T13:56:08;8.00;99.90
53802;DHT22;39709;53.334;6.534;2023-04-03T13:58:35;7.70;99.90
53802;DHT22;39709;53.334;6.534;2023-04-03T14:01:19;7.70;99.90
53802;DHT22;39709;53.334;6.534;2023-04-03T14:03:57;8.30;1.00
53802;DHT22;39709;53.334;6.534;2023-04-03T14:06:24;8.00;99.90
53802;DHT22;39709;53.334;6.534;2023-04-03T14:08:50;7.80;99.90
53802;DHT22;39709;53.334;6.534;2023-04-03T14:11:24;8.30;2.40
53802;DHT22;39709;53.334;6.534;2023-04-03T14:13:50;8.90;99.90
53802;DHT22;39709;53.334;6.534;2023-04-03T14:16:20;8.90;99.90
53802;DHT22;39709;53.334;6.534;2023-04-03T14:18:47;8.50;1.00
53802;DHT22;39709;53.334;6.534;2023-04-03T14:21:15;8.10;99.90
53802;DHT22;39709;53.334;6.534;2023-04-03T14:23:41;8.20;1.00
53802;DHT22;39709;53.334;6.534;2023-04-03T14:26:13;8.00;99.90
53802;DHT22;39709;53.334;6.534;2023-04-03T14:28:42;8.00;99.90
53802;DHT22;39709;53.334;6.534;2023-04-03T14:31:10;8.30;1.00
53802;DHT22;39709;53.334;6.534;2023-04-03T14:33:36;8.30;99.90
53802;DHT22;39709;53.334;6.534;2023-04-03T14:36:14;8.40;1.00
53802;DHT22;39709;53.334;6.534;2023-04-03T14:38:42;8.40;1.00
53802;DHT22;39709;53.334;6.534;2023-04-03T14:41:11;8.70;1.00
53802;DHT22;39709;53.334;6.534;2023-04-03T14:43:37;8.50;1.00
53802;DHT22;39709;53.334;6.534;2023-04-03T14:46:04;8.10;99.90
53802;DHT22;39709;53.334;6.534;2023-04-03T14:48:30;8.80;11.70
53802;DHT22;39709;53.334;6.534;2023-04-03T14:50:59;9.10;99.90
53802;DHT22;39709;53.334;6.534;2023-04-03T14:53:25;8.80;1.00
53802;DHT22;39709;53.334;6.534;2023-04-03T14:55:52;8.70;1.00
53802;DHT22;39709;53.334;6.534;2023-04-03T14:58:20;8.70;1.00
53802;DHT22;39709;53.334;6.534;2023-04-03T15:00:46;8.90;1.00
53802;DHT22;39709;53.334;6.534;2023-04-03T15:03:17;8.60;99.90
53802;DHT22;39709;53.334;6.534;2023-04-03T15:05:45;8.90;1.00
53802;DHT22;39709;53.334;6.534;2023-04-03T15:08:19;8.70;99.90
53802;DHT22;39709;53.334;6.534;2023-04-03T15:10:45;8.70;1.00
53802;DHT22;39709;53.334;6.534;2023-04-03T15:13:12;8.70;1.00
53802;DHT22;39709;53.334;6.534;2023-04-03T15:15:38;9.30;82.70
53802;DHT22;39709;53.334;6.534;2023-04-03T15:18:04;9.50;83.90
53802;DHT22;39709;53.334;6.534;2023-04-03T15:20:30;8.80;99.90
53802;DHT22;39709;53.334;6.534;2023-04-03T15:22:59;9.30;42.70
53802;DHT22;39709;53.334;6.534;2023-04-03T15:25:30;8.80;1.00
53802;DHT22;39709;53.334;6.534;2023-04-03T15:27:57;8.50;99.90
53802;DHT22;39709;53.334;6.534;2023-04-03T15:30:23;8.60;1.00
53802;DHT22;39709;53.334;6.534;2023-04-03T15:32:49;8.70;1.00
53802;DHT22;39709;53.334;6.534;2023-04-03T15:35:14;9.10;86.60
53802;DHT22;39709;53.334;6.534;2023-04-03T15:37:40;8.70;1.00
53802;DHT22;39709;53.334;6.534;2023-04-03T15:40:07;8.80;1.00
53802;DHT22;39709;53.334;6.534;2023-04-03T15:42:33;8.80;1.00
53802;DHT22;39709;53.334;6.534;2023-04-03T15:44:59;8.60;1.00
53802;DHT22;39709;53.334;6.534;2023-04-03T15:47:25;9.00;27.00
53802;DHT22;39709;53.334;6.534;2023-04-03T15:49:52;8.70;1.00
53802;DHT22;39709;53.334;6.534;2023-04-03T15:52:18;9.00;1.00
53802;DHT22;39709;53.334;6.534;2023-04-03T15:54:43;8.80;1.00
53802;DHT22;39709;53.334;6.534;2023-04-03T15:57:09;9.00;1.00
53802;DHT22;39709;53.334;6.534;2023-04-03T15:59:35;8.80;1.00
53802;DHT22;39709;53.334;6.534;2023-04-03T16:02:03;9.40;67.80
53802;DHT22;39709;53.334;6.534;2023-04-03T16:04:29;9.30;1.00
53802;DHT22;39709;53.334;6.534;2023-04-03T16:06:55;8.90;1.00
53802;DHT22;39709;53.334;6.534;2023-04-03T16:09:21;9.30;63.90
53802;DHT22;39709;53.334;6.534;2023-04-03T16:11:47;8.90;1.00
53802;DHT22;39709;53.334;6.534;2023-04-03T16:14:13;8.60;99.90
53802;DHT22;39709;53.334;6.534;2023-04-03T16:16:39;8.60;99.90
53802;DHT22;39709;53.334;6.534;2023-04-03T16:19:05;8.90;1.00
53802;DHT22;39709;53.334;6.534;2023-04-03T16:21:32;9.30;47.30
53802;DHT22;39709;53.334;6.534;2023-04-03T16:23:58;9.10;1.00
53802;DHT22;39709;53.334;6.534;2023-04-03T16:26:25;8.80;1.00
53802;DHT22;39709;53.334;6.534;2023-04-03T16:28:51;8.40;99.90
53802;DHT22;39709;53.334;6.534;2023-04-03T16:31:17;8.20;99.90
53802;DHT22;39709;53.334;6.534;2023-04-03T16:33:42;8.90;1.00
53802;DHT22;39709;53.334;6.534;2023-04-03T16:36:08;8.90;1.00
53802;DHT22;39709;53.334;6.534;2023-04-03T16:38:35;9.20;1.00
53802;DHT22;39709;53.334;6.534;2023-04-03T16:41:00;8.40;99.90
53802;DHT22;39709;53.334;6.534;2023-04-03T16:43:30;8.40;99.90
53802;DHT22;39709;53.334;6.534;2023-04-03T16:45:56;8.60;1.00
53802;DHT22;39709;53.334;6.534;2023-04-03T16:48:22;8.60;1.00
53802;DHT22;39709;53.334;6.534;2023-04-03T16:50:49;8.80;1.00
53802;DHT22;39709;53.334;6.534;2023-04-03T16:53:21;8.30;99.90
53802;DHT22;39709;53.334;6.534;2023-04-03T16:55:48;8.80;99.90
53802;DHT22;39709;53.334;6.534;2023-04-03T16:58:14;8.60;99.90
53802;DHT22;39709;53.334;6.534;2023-04-03T17:00:41;9.10;1.00
53802;DHT22;39709;53.334;6.534;2023-04-03T17:03:07;8.70;99.90
53802;DHT22;39709;53.334;6.534;2023-04-03T17:05:33;8.30;99.90
53802;DHT22;39709;53.334;6.534;2023-04-03T17:07:59;8.30;99.90
53802;DHT22;39709;53.334;6.534;2023-04-03T17:10:26;8.70;99.90
53802;DHT22;39709;53.334;6.534;2023-04-03T17:12:52;9.00;99.90
53802;DHT22;39709;53.334;6.534;2023-04-03T17:15:17;8.50;99.90
53802;DHT22;39709;53.334;6.534;2023-04-03T17:17:46;8.50;99.90
53802;DHT22;39709;53.334;6.534;2023-04-03T17:20:12;8.70;99.90
53802;DHT22;39709;53.334;6.534;2023-04-03T17:22:38;8.80;99.90
53802;DHT22;39709;53.334;6.534;2023-04-03T17:25:04;9.20;1.00
53802;DHT22;39709;53.334;6.534;2023-04-03T17:27:30;8.80;99.90
53802;DHT22;39709;53.334;6.534;2023-04-03T17:29:55;8.40;99.90
53802;DHT22;39709;53.334;6.534;2023-04-03T17:32:21;8.10;99.90
53802;DHT22;39709;53.334;6.534;2023-04-03T17:34:48;8.00;99.90
53802;DHT22;39709;53.334;6.534;2023-04-03T17:37:14;8.10;99.90
53802;DHT22;39709;53.334;6.534;2023-04-03T17:39:39;8.00;99.90
53802;DHT22;39709;53.334;6.534;2023-04-03T17:42:05;8.20;99.90
53802;DHT22;39709;53.334;6.534;2023-04-03T17:44:31;7.90;99.90
53802;DHT22;39709;53.334;6.534;2023-04-03T17:46:56;7.30;99.90
53802;DHT22;39709;53.334;6.534;2023-04-03T17:49:22;7.10;99.90
53802;DHT22;39709;53.334;6.534;2023-04-03T17:51:49;6.80;99.90
53802;DHT22;39709;53.334;6.534;2023-04-03T17:54:15;6.50;99.90
53802;DHT22;39709;53.334;6.534;2023-04-03T17:56:41;6.20;99.90